sensor_id;sensor_type;location;lat;lon;timestamp;P1;durP1;ratioP1;P2;durP2;ratioP2
47147;SDS011;32900;47.498;8.738;2022-07-29T17:26:55;5.55;;;3.60;;
47147;SDS011;32900;47.498;8.738;2022-07-29T17:29:23;6.45;;;4.55;;
47147;SDS011;32900;47.498;8.738;2022-07-29T17:31:49;14.38;;;5.05;;
47147;SDS011;32900;47.498;8.738;2022-07-29T17:34:16;6.93;;;3.85;;
47147;SDS011;32900;47.498;8.738;2022-07-29T17:36:44;5.63;;;4.20;;
47147;SDS011;32900;47.498;8.738;2022-07-29T17:39:11;5.32;;;3.60;;
47147;SDS011;32900;47.498;8.738;2022-07-29T17:41:37;6.07;;;3.80;;
47147;SDS011;32900;47.498;8.738;2022-07-29T17:44:08;5.03;;;3.10;;
47147;SDS011;32900;47.498;8.738;2022-07-29T17:46:35;5.25;;;3.20;;
47147;SDS011;32900;47.498;8.738;2022-07-29T17:49:02;5.50;;;3.50;;
47147;SDS011;32900;47.498;8.738;2022-07-29T17:51:29;5.32;;;3.28;;
47147;SDS011;32900;47.498;8.738;2022-07-29T17:53:56;6.15;;;3.22;;
47147;SDS011;32900;47.498;8.738;2022-07-29T17:56:23;5.10;;;3.38;;
47147;SDS011;32900;47.498;8.738;2022-07-29T17:58:50;5.72;;;3.05;;
47147;SDS011;32900;47.498;8.738;2022-07-29T18:01:17;5.15;;;3.10;;
47147;SDS011;32900;47.498;8.738;2022-07-29T18:03:44;3.85;;;2.60;;
47147;SDS011;32900;47.498;8.738;2022-07-29T18:06:12;5.80;;;3.00;;
47147;SDS011;32900;47.498;8.738;2022-07-29T18:08:38;4.88;;;2.85;;
47147;SDS011;32900;47.498;8.738;2022-07-29T18:11:05;5.07;;;3.40;;
47147;SDS011;32900;47.498;8.738;2022-07-29T18:13:32;4.75;;;2.90;;
47147;SDS011;32900;47.498;8.738;2022-07-29T18:15:59;7.38;;;3.13;;
47147;SDS011;32900;47.498;8.738;2022-07-29T18:18:26;5.88;;;2.67;;
47147;SDS011;32900;47.498;8.738;2022-07-29T18:20:53;5.57;;;3.10;;
47147;SDS011;32900;47.498;8.738;2022-07-29T18:23:20;10.30;;;3.10;;
47147;SDS011;32900;47.498;8.738;2022-07-29T18:25:47;5.70;;;2.95;;
47147;SDS011;32900;47.498;8.738;2022-07-29T18:28:14;4.50;;;2.50;;
47147;SDS011;32900;47.498;8.738;2022-07-29T18:30:41;4.47;;;2.58;;
47147;SDS011;32900;47.498;8.738;2022-07-29T18:33:07;5.13;;;2.92;;
47147;SDS011;32900;47.498;8.738;2022-07-29T18:35:47;4.25;;;2.42;;
47147;SDS011;32900;47.498;8.738;2022-07-29T18:38:16;3.92;;;2.50;;
47147;SDS011;32900;47.498;8.738;2022-07-29T18:40:43;6.00;;;2.80;;
47147;SDS011;32900;47.498;8.738;2022-07-29T18:43:11;6.18;;;2.97;;
47147;SDS011;32900;47.498;8.738;2022-07-29T18:45:38;5.70;;;2.75;;
47147;SDS011;32900;47.498;8.738;2022-07-29T18:48:07;5.35;;;2.78;;
47147;SDS011;32900;47.498;8.738;2022-07-29T18:50:38;6.68;;;2.80;;
47147;SDS011;32900;47.498;8.738;2022-07-29T18:53:05;5.18;;;2.70;;
47147;SDS011;32900;47.498;8.738;2022-07-29T18:55:32;3.13;;;2.03;;
47147;SDS011;32900;47.498;8.738;2022-07-29T18:57:59;4.75;;;1.95;;
47147;SDS011;32900;47.498;8.738;2022-07-29T19:00:26;5.20;;;2.38;;
47147;SDS011;32900;47.498;8.738;2022-07-29T19:02:53;4.70;;;2.05;;
47147;SDS011;32900;47.498;8.738;2022-07-29T19:05:20;3.80;;;2.20;;
47147;SDS011;32900;47.498;8.738;2022-07-29T19:07:48;3.55;;;2.25;;
47147;SDS011;32900;47.498;8.738;2022-07-29T19:10:15;4.70;;;2.00;;
47147;SDS011;32900;47.498;8.738;2022-07-29T19:12:41;4.38;;;2.55;;
47147;SDS011;32900;47.498;8.738;2022-07-29T19:15:08;6.05;;;2.67;;
47147;SDS011;32900;47.498;8.738;2022-07-29T19:17:35;4.18;;;2.25;;
47147;SDS011;32900;47.498;8.738;2022-07-29T19:20:04;4.97;;;2.80;;
47147;SDS011;32900;47.498;8.738;2022-07-29T19:22:32;3.30;;;2.20;;
47147;SDS011;32900;47.498;8.738;2022-07-29T19:24:59;3.50;;;2.05;;
47147;SDS011;32900;47.498;8.738;2022-07-29T19:27:26;3.50;;;2.35;;
47147;SDS011;32900;47.498;8.738;2022-07-29T19:29:53;3.78;;;2.30;;
47147;SDS011;32900;47.498;8.738;2022-07-29T19:32:24;6.22;;;2.30;;
47147;SDS011;32900;47.498;8.738;2022-07-29T19:34:51;10.07;;;2.50;;
47147;SDS011;32900;47.498;8.738;2022-07-29T19:37:36;4.93;;;2.75;;
47147;SDS011;32900;47.498;8.738;2022-07-29T19:40:04;4.82;;;2.75;;
47147;SDS011;32900;47.498;8.738;2022-07-29T19:42:31;3.25;;;2.25;;
47147;SDS011;32900;47.498;8.738;2022-07-29T19:44:58;3.47;;;2.00;;
47147;SDS011;32900;47.498;8.738;2022-07-29T19:47:25;4.05;;;2.47;;
47147;SDS011;32900;47.498;8.738;2022-07-29T19:49:52;5.68;;;2.45;;
47147;SDS011;32900;47.498;8.738;2022-07-29T19:52:18;4.75;;;2.70;;
47147;SDS011;32900;47.498;8.738;2022-07-29T19:54:45;4.57;;;2.50;;
47147;SDS011;32900;47.498;8.738;2022-07-29T19:57:12;3.90;;;2.60;;
47147;SDS011;32900;47.498;8.738;2022-07-29T19:59:39;4.90;;;2.60;;
47147;SDS011;32900;47.498;8.738;2022-07-29T20:02:06;3.78;;;2.70;;
47147;SDS011;32900;47.498;8.738;2022-07-29T20:04:36;4.85;;;2.60;;
47147;SDS011;32900;47.498;8.738;2022-07-29T20:07:04;4.93;;;2.60;;
47147;SDS011;32900;47.498;8.738;2022-07-29T20:09:31;6.15;;;2.92;;
47147;SDS011;32900;47.498;8.738;2022-07-29T20:11:58;4.78;;;2.95;;
47147;SDS011;32900;47.498;8.738;2022-07-29T20:14:25;5.38;;;2.97;;
47147;SDS011;32900;47.498;8.738;2022-07-29T20:16:52;5.25;;;2.70;;
47147;SDS011;32900;47.498;8.738;2022-07-29T20:19:19;4.50;;;2.72;;
47147;SDS011;32900;47.498;8.738;2022-07-29T20:21:46;4.60;;;2.88;;
47147;SDS011;32900;47.498;8.738;2022-07-29T20:24:13;6.45;;;2.97;;
47147;SDS011;32900;47.498;8.738;2022-07-29T20:26:40;5.25;;;3.00;;
47147;SDS011;32900;47.498;8.738;2022-07-29T20:29:07;4.45;;;2.78;;
47147;SDS011;32900;47.498;8.738;2022-07-29T20:31:34;5.35;;;2.88;;
47147;SDS011;32900;47.498;8.738;2022-07-29T20:34:01;4.90;;;3.03;;
47147;SDS011;32900;47.498;8.738;2022-07-29T20:36:28;5.53;;;3.25;;
47147;SDS011;32900;47.498;8.738;2022-07-29T20:38:56;7.32;;;3.70;;
47147;SDS011;32900;47.498;8.738;2022-07-29T20:41:26;4.35;;;2.90;;
47147;SDS011;32900;47.498;8.738;2022-07-29T20:43:54;5.40;;;3.22;;
47147;SDS011;32900;47.498;8.738;2022-07-29T20:46:21;8.43;;;3.30;;
47147;SDS011;32900;47.498;8.738;2022-07-29T20:48:48;6.07;;;3.17;;
47147;SDS011;32900;47.498;8.738;2022-07-29T20:51:16;5.18;;;2.78;;
47147;SDS011;32900;47.498;8.738;2022-07-29T20:53:42;5.65;;;3.50;;
47147;SDS011;32900;47.498;8.738;2022-07-29T20:56:09;6.25;;;3.17;;
47147;SDS011;32900;47.498;8.738;2022-07-29T20:58:38;5.60;;;3.40;;
47147;SDS011;32900;47.498;8.738;2022-07-29T21:01:06;4.82;;;3.13;;
47147;SDS011;32900;47.498;8.738;2022-07-29T21:03:34;4.35;;;3.08;;
47147;SDS011;32900;47.498;8.738;2022-07-29T21:06:01;5.25;;;3.17;;
47147;SDS011;32900;47.498;8.738;2022-07-29T21:08:28;4.80;;;2.80;;
47147;SDS011;32900;47.498;8.738;2022-07-29T21:10:55;5.35;;;3.17;;
47147;SDS011;32900;47.498;8.738;2022-07-29T21:13:22;4.07;;;2.83;;
47147;SDS011;32900;47.498;8.738;2022-07-29T21:15:50;7.32;;;2.63;;
47147;SDS011;32900;47.498;8.738;2022-07-29T21:18:20;4.82;;;2.60;;
47147;SDS011;32900;47.498;8.738;2022-07-29T21:20:58;4.72;;;2.58;;
47147;SDS011;32900;47.498;8.738;2022-07-29T21:23:25;5.95;;;3.00;;
47147;SDS011;32900;47.498;8.738;2022-07-29T21:25:53;4.32;;;2.85;;
47147;SDS011;32900;47.498;8.738;2022-07-29T21:28:20;5.75;;;3.10;;
47147;SDS011;32900;47.498;8.738;2022-07-29T21:30:55;5.50;;;2.95;;
47147;SDS011;32900;47.498;8.738;2022-07-29T21:33:24;5.70;;;2.35;;
47147;SDS011;32900;47.498;8.738;2022-07-29T21:35:52;4.97;;;2.55;;
47147;SDS011;32900;47.498;8.738;2022-07-29T21:38:40;4.35;;;2.65;;
47147;SDS011;32900;47.498;8.738;2022-07-29T21:41:07;8.80;;;2.92;;
47147;SDS011;32900;47.498;8.738;2022-07-29T21:43:35;5.63;;;2.80;;
47147;SDS011;32900;47.498;8.738;2022-07-29T21:46:07;3.95;;;2.75;;
47147;SDS011;32900;47.498;8.738;2022-07-29T21:48:34;6.15;;;2.88;;
47147;SDS011;32900;47.498;8.738;2022-07-29T21:51:01;5.55;;;2.47;;
47147;SDS011;32900;47.498;8.738;2022-07-29T21:53:27;3.95;;;2.70;;
47147;SDS011;32900;47.498;8.738;2022-07-29T21:55:55;3.72;;;2.20;;
47147;SDS011;32900;47.498;8.738;2022-07-29T21:58:23;4.47;;;2.58;;
47147;SDS011;32900;47.498;8.738;2022-07-29T22:00:50;4.72;;;2.42;;
47147;SDS011;32900;47.498;8.738;2022-07-29T22:03:17;4.43;;;2.58;;
47147;SDS011;32900;47.498;8.738;2022-07-29T22:05:44;3.33;;;1.98;;
47147;SDS011;32900;47.498;8.738;2022-07-29T22:08:11;4.70;;;3.05;;
47147;SDS011;32900;47.498;8.738;2022-07-29T22:10:38;4.85;;;2.30;;
47147;SDS011;32900;47.498;8.738;2022-07-29T22:13:05;6.70;;;2.60;;
47147;SDS011;32900;47.498;8.738;2022-07-29T22:15:32;2.97;;;2.05;;
47147;SDS011;32900;47.498;8.738;2022-07-29T22:17:59;4.78;;;2.10;;
47147;SDS011;32900;47.498;8.738;2022-07-29T22:20:26;4.03;;;2.45;;
47147;SDS011;32900;47.498;8.738;2022-07-29T22:22:53;3.70;;;2.13;;
47147;SDS011;32900;47.498;8.738;2022-07-29T22:25:20;6.05;;;2.55;;
47147;SDS011;32900;47.498;8.738;2022-07-29T22:27:47;4.18;;;2.60;;
47147;SDS011;32900;47.498;8.738;2022-07-29T22:30:14;7.40;;;2.70;;
47147;SDS011;32900;47.498;8.738;2022-07-29T22:32:41;4.55;;;2.53;;
47147;SDS011;32900;47.498;8.738;2022-07-29T22:35:08;3.72;;;2.45;;
47147;SDS011;32900;47.498;8.738;2022-07-29T22:37:35;6.50;;;2.42;;
47147;SDS011;32900;47.498;8.738;2022-07-29T22:40:02;6.38;;;2.47;;
47147;SDS011;32900;47.498;8.738;2022-07-29T22:42:29;4.20;;;2.47;;
47147;SDS011;32900;47.498;8.738;2022-07-29T22:44:56;4.82;;;2.40;;
47147;SDS011;32900;47.498;8.738;2022-07-29T22:47:23;5.93;;;2.15;;
47147;SDS011;32900;47.498;8.738;2022-07-29T22:50:09;5.25;;;2.10;;
47147;SDS011;32900;47.498;8.738;2022-07-29T22:52:36;4.90;;;2.58;;
47147;SDS011;32900;47.498;8.738;2022-07-29T22:55:03;4.50;;;2.75;;
47147;SDS011;32900;47.498;8.738;2022-07-29T22:57:30;4.55;;;2.10;;
47147;SDS011;32900;47.498;8.738;2022-07-29T22:59:57;5.53;;;2.50;;
47147;SDS011;32900;47.498;8.738;2022-07-29T23:02:26;4.15;;;2.28;;
47147;SDS011;32900;47.498;8.738;2022-07-29T23:04:54;4.53;;;2.50;;
47147;SDS011;32900;47.498;8.738;2022-07-29T23:07:21;4.75;;;2.80;;
47147;SDS011;32900;47.498;8.738;2022-07-29T23:09:48;5.30;;;2.60;;
47147;SDS011;32900;47.498;8.738;2022-07-29T23:12:15;5.68;;;2.20;;
47147;SDS011;32900;47.498;8.738;2022-07-29T23:14:42;4.88;;;2.72;;
47147;SDS011;32900;47.498;8.738;2022-07-29T23:17:09;4.45;;;2.17;;
47147;SDS011;32900;47.498;8.738;2022-07-29T23:19:36;7.35;;;2.40;;
47147;SDS011;32900;47.498;8.738;2022-07-29T23:22:03;4.60;;;2.42;;
47147;SDS011;32900;47.498;8.738;2022-07-29T23:24:29;5.93;;;2.30;;
47147;SDS011;32900;47.498;8.738;2022-07-29T23:26:56;5.60;;;3.10;;
47147;SDS011;32900;47.498;8.738;2022-07-29T23:29:24;3.85;;;2.50;;
47147;SDS011;32900;47.498;8.738;2022-07-29T23:31:51;6.65;;;2.83;;
47147;SDS011;32900;47.498;8.738;2022-07-29T23:34:18;4.13;;;2.25;;
47147;SDS011;32900;47.498;8.738;2022-07-29T23:36:44;4.00;;;2.47;;
47147;SDS011;32900;47.498;8.738;2022-07-29T23:39:11;3.25;;;2.13;;
47147;SDS011;32900;47.498;8.738;2022-07-29T23:41:38;4.47;;;2.67;;
47147;SDS011;32900;47.498;8.738;2022-07-29T23:44:05;5.13;;;2.75;;
47147;SDS011;32900;47.498;8.738;2022-07-29T23:46:32;3.97;;;2.47;;
47147;SDS011;32900;47.498;8.738;2022-07-29T23:48:59;5.65;;;2.70;;
47147;SDS011;32900;47.498;8.738;2022-07-29T23:51:26;4.38;;;2.20;;
47147;SDS011;32900;47.498;8.738;2022-07-29T23:53:54;4.68;;;2.53;;
47147;SDS011;32900;47.498;8.738;2022-07-29T23:56:21;3.72;;;2.42;;
47147;SDS011;32900;47.498;8.738;2022-07-29T23:58:48;5.00;;;2.60;;
